Time;durP1;ratioP1;P1;durP2;ratioP2;P2;SDS_P1;SDS_P2;PMS_P1;PMS_P2;Temp;Humidity;BMP_temperature;BMP_pressure;BME280_temperature;BME280_humidity;BME280_pressure;Samples;Min_cycle;Max_cycle;Signal;HPM_P1;HPM_P2
2023/06/29 00:01:27;;;;;;;6.32;2.33;;;;;;;-145.69;nan;51996.84;5075930;28;20199;-92
2023/06/29 00:03:53;;;;;;;4.32;2.20;;;;;;;-145.69;nan;52004.75;5075575;28;20205;-93
2023/06/29 00:06:20;;;;;;;6.07;2.30;;;;;;;-145.69;nan;52064.16;5075474;28;20230;-93
2023/06/29 00:08:48;;;;;;;8.93;2.65;;;;;;;-145.69;nan;52010.69;5075447;28;20207;-92
2023/06/29 00:11:14;;;;;;;6.38;2.13;;;;;;;-145.69;nan;52052.28;5075548;28;20217;-92
2023/06/29 00:13:41;;;;;;;5.57;2.65;;;;;;;-145.69;nan;52040.41;5075514;28;20678;-91
2023/06/29 00:16:08;;;;;;;6.25;2.50;;;;;;;-145.69;nan;52040.41;5075721;28;20553;-91
2023/06/29 00:18:35;;;;;;;4.07;2.40;;;;;;;-145.69;nan;52044.38;5075407;28;20285;-90
2023/06/29 00:21:03;;;;;;;8.77;2.40;;;;;;;-145.69;nan;52038.44;5075258;28;20203;-91
2023/06/29 00:23:31;;;;;;;4.47;2.22;;;;;;;-145.69;nan;52076.03;5075693;28;20199;-91
2023/06/29 00:26:02;;;;;;;5.40;2.22;;;;;;;-145.69;nan;52048.31;5074073;28;20201;-91
2023/06/29 00:28:28;;;;;;;6.07;2.17;;;;;;;-145.69;nan;52028.53;5075628;28;20658;-91
2023/06/29 00:30:56;;;;;;;4.10;2.30;;;;;;;-145.69;nan;52036.44;5075486;28;20210;-92
2023/06/29 00:33:22;;;;;;;3.72;2.00;;;;;;;-145.69;nan;52034.47;5075417;28;20241;-91
2023/06/29 00:35:49;;;;;;;4.50;2.55;;;;;;;-145.69;nan;52028.53;5075463;28;20195;-91
2023/06/29 00:38:15;;;;;;;4.18;2.38;;;;;;;-145.69;nan;51994.88;5074318;28;20194;-92
2023/06/29 00:40:42;;;;;;;3.10;2.13;;;;;;;-145.69;nan;52030.50;5074963;28;20206;-91
2023/06/29 00:43:10;;;;;;;5.35;2.30;;;;;;;-145.69;nan;52036.44;5074096;28;20562;-91
2023/06/29 00:45:36;;;;;;;5.85;2.47;;;;;;;-145.69;nan;52044.38;5075123;28;20209;-91
2023/06/29 00:48:03;;;;;;;4.93;2.53;;;;;;;-145.69;nan;52072.09;5074152;28;20209;-91
2023/06/29 00:50:30;;;;;;;7.10;2.60;;;;;;;-145.69;nan;52040.41;5074851;28;20230;-92
2023/06/29 00:52:57;;;;;;;5.40;2.38;;;;;;;-145.69;nan;52044.38;5055754;28;20234;-91
2023/06/29 00:55:23;;;;;;;6.05;2.33;;;;;;;-145.69;nan;52030.50;5075148;28;20214;-91
2023/06/29 00:57:50;;;;;;;6.00;2.33;;;;;;;-145.69;nan;52054.25;5074608;28;20194;-91
2023/06/29 01:00:18;;;;;;;7.40;2.43;;;;;;;-145.69;nan;52068.13;5075232;28;20202;-91
2023/06/29 01:02:45;;;;;;;4.77;2.53;;;;;;;-145.69;nan;52040.41;5075170;28;20205;-91
2023/06/29 01:05:14;;;;;;;8.67;2.50;;;;;;;-145.69;nan;52034.47;5075072;28;20202;-91
2023/06/29 01:07:46;;;;;;;3.77;2.80;;;;;;;-145.69;nan;52028.53;5074861;28;20203;-92
2023/06/29 01:10:15;;;;;;;10.37;3.10;;;;;;;-145.69;nan;52050.31;5073638;28;20206;-92
2023/06/29 01:12:42;;;;;;;5.33;2.50;;;;;;;-145.69;nan;52056.25;5074982;28;20221;-91
2023/06/29 01:15:11;;;;;;;4.90;2.50;;;;;;;-145.69;nan;52028.53;5074805;28;20289;-92
2023/06/29 01:17:40;;;;;;;6.10;2.57;;;;;;;-145.69;nan;52046.34;5074651;28;20293;-90
2023/06/29 01:20:11;;;;;;;5.87;2.40;;;;;;;-145.69;nan;51996.84;5074816;28;20242;-91
2023/06/29 01:22:41;;;;;;;7.27;3.00;;;;;;;-145.69;nan;52046.34;5074568;28;20203;-91
2023/06/29 01:25:09;;;;;;;5.80;2.60;;;;;;;-145.69;nan;52040.41;5074738;28;20202;-91
2023/06/29 01:27:37;;;;;;;5.73;2.83;;;;;;;-145.69;nan;52040.41;5074387;28;20260;-91
2023/06/29 01:30:04;;;;;;;4.00;2.37;;;;;;;-145.69;nan;52054.25;5075025;28;20430;-91
2023/06/29 01:32:34;;;;;;;8.47;2.40;;;;;;;-145.69;nan;52032.47;5075048;28;20314;-91
2023/06/29 01:35:01;;;;;;;7.20;2.88;;;;;;;-145.69;nan;52014.66;5075091;28;20199;-91
2023/06/29 01:37:35;;;;;;;5.03;2.60;;;;;;;-145.69;nan;52083.97;5074980;28;20190;-92
2023/06/29 01:40:06;;;;;;;3.73;2.53;;;;;;;-145.69;nan;52044.38;5074576;28;20205;-92
2023/06/29 01:42:35;;;;;;;5.50;2.70;;;;;;;-145.69;nan;52068.13;5074532;28;20206;-92
2023/06/29 01:45:04;;;;;;;6.83;2.80;;;;;;;-145.69;nan;52076.03;5075593;28;20657;-91
2023/06/29 01:47:31;;;;;;;4.43;2.30;;;;;;;-145.69;nan;52032.47;5075054;28;20207;-92
2023/06/29 01:49:59;;;;;;;6.07;2.83;;;;;;;-145.69;nan;52060.22;5052966;28;20227;-91
2023/06/29 01:52:26;;;;;;;5.80;2.57;;;;;;;-145.69;nan;52046.34;5052892;28;20199;-88
2023/06/29 01:54:52;;;;;;;4.47;2.58;;;;;;;-145.69;nan;52040.41;5058666;28;20442;-91
2023/06/29 01:57:19;;;;;;;3.50;2.40;;;;;;;-145.69;nan;52044.38;5073623;28;20226;-91
2023/06/29 01:59:47;;;;;;;4.13;2.83;;;;;;;-145.69;nan;52056.25;5074909;28;20194;-91
2023/06/29 02:02:13;;;;;;;5.28;2.85;;;;;;;-145.69;nan;52056.25;5077524;28;20213;-91
2023/06/29 02:04:40;;;;;;;5.33;2.90;;;;;;;-145.69;nan;52066.16;5078594;28;20210;-91
2023/06/29 02:07:07;;;;;;;5.53;2.50;;;;;;;-145.69;nan;52024.56;5078406;28;20553;-91
2023/06/29 02:09:33;;;;;;;6.07;2.83;;;;;;;-145.69;nan;52056.25;5077183;28;20198;-89
2023/06/29 02:12:00;;;;;;;5.57;2.50;;;;;;;-145.69;nan;52060.22;5077932;28;20198;-91
2023/06/29 02:14:28;;;;;;;5.00;2.30;;;;;;;-145.69;nan;52060.22;5077565;28;20230;-91
2023/06/29 02:16:55;;;;;;;4.10;2.47;;;;;;;-145.69;nan;52038.44;5078163;28;20199;-91
2023/06/29 02:19:22;;;;;;;4.57;2.80;;;;;;;-145.69;nan;52050.31;5078231;28;20195;-91
2023/06/29 02:21:48;;;;;;;5.87;2.50;;;;;;;-145.69;nan;52056.25;5077468;28;20209;-91
2023/06/29 02:24:15;;;;;;;4.43;2.00;;;;;;;-145.69;nan;52056.25;5077244;28;20213;-91
2023/06/29 02:26:41;;;;;;;6.97;2.70;;;;;;;-145.69;nan;52056.25;5078032;28;20199;-91
2023/06/29 02:29:08;;;;;;;3.67;2.17;;;;;;;-145.69;nan;52058.22;5077839;28;20562;-92
2023/06/29 02:31:34;;;;;;;5.27;2.37;;;;;;;-145.69;nan;52070.09;5077503;28;20210;-92
2023/06/29 02:34:05;;;;;;;5.20;2.17;;;;;;;-145.69;nan;52042.38;5076816;28;20226;-91
2023/06/29 02:36:31;;;;;;;3.10;2.43;;;;;;;-145.69;nan;52072.09;5076253;28;20664;-92
2023/06/29 02:38:58;;;;;;;7.37;2.90;;;;;;;-145.69;nan;52068.13;5077576;28;20199;-92
2023/06/29 02:41:24;;;;;;;5.27;2.40;;;;;;;-145.69;nan;52066.16;5077409;28;20199;-91
2023/06/29 02:43:52;;;;;;;4.43;2.47;;;;;;;-145.69;nan;52060.22;5077626;28;20191;-91
2023/06/29 02:46:19;;;;;;;2.77;2.37;;;;;;;-145.69;nan;52091.88;5077390;28;20202;-91
2023/06/29 02:48:45;;;;;;;5.73;2.13;;;;;;;-145.69;nan;52072.09;5077282;28;20203;-91
2023/06/29 02:51:13;;;;;;;5.70;2.40;;;;;;;-145.69;nan;52054.25;5076886;28;20241;-91
2023/06/29 02:53:40;;;;;;;6.23;2.50;;;;;;;-145.69;nan;52052.28;5076685;28;20207;-91
2023/06/29 02:56:06;;;;;;;4.17;2.10;;;;;;;-145.69;nan;52052.28;5073776;28;20195;-90
2023/06/29 02:58:33;;;;;;;3.93;2.60;;;;;;;-145.69;nan;52072.09;5077299;28;20207;-91
2023/06/29 03:01:00;;;;;;;5.57;2.67;;;;;;;-145.69;nan;52036.44;5077152;28;20209;-92
2023/06/29 03:03:26;;;;;;;4.77;2.40;;;;;;;-145.69;nan;52048.31;5076529;28;20226;-90
2023/06/29 03:05:52;;;;;;;3.77;2.10;;;;;;;-145.69;nan;52056.25;5076649;28;20203;-91
2023/06/29 03:08:20;;;;;;;6.23;2.50;;;;;;;-145.69;nan;52083.97;5076671;28;20206;-91
2023/06/29 03:10:47;;;;;;;7.23;2.80;;;;;;;-145.69;nan;52082.00;5077429;28;20210;-90
2023/06/29 03:13:14;;;;;;;6.03;2.47;;;;;;;-145.69;nan;52056.25;5075878;28;20202;-91
2023/06/29 03:15:40;;;;;;;4.23;2.27;;;;;;;-145.69;nan;52064.16;5076705;28;20197;-90
2023/06/29 03:18:07;;;;;;;4.80;2.40;;;;;;;-145.69;nan;52091.88;5076376;28;20217;-91
2023/06/29 03:20:33;;;;;;;5.83;2.27;;;;;;;-145.69;nan;52052.28;5076248;28;20222;-90
2023/06/29 03:23:00;;;;;;;4.87;2.03;;;;;;;-145.69;nan;52080.00;5076122;28;20215;-91
2023/06/29 03:25:27;;;;;;;3.80;2.40;;;;;;;-145.69;nan;52076.03;5075976;28;20677;-91
2023/06/29 03:27:54;;;;;;;5.13;2.60;;;;;;;-145.69;nan;52074.06;5076205;28;20257;-91
2023/06/29 03:30:20;;;;;;;4.93;2.20;;;;;;;-145.69;nan;52105.75;5075989;28;20187;-89
2023/06/29 03:32:47;;;;;;;5.50;2.60;;;;;;;-145.69;nan;52064.16;5076017;28;20255;-91
2023/06/29 03:35:13;;;;;;;6.10;3.00;;;;;;;-145.69;nan;52074.06;5076756;28;20203;-91
2023/06/29 03:37:40;;;;;;;4.47;2.33;;;;;;;-145.69;nan;52056.25;5075940;28;20205;-91
2023/06/29 03:40:08;;;;;;;6.13;2.40;;;;;;;-145.69;nan;52032.47;5055358;28;20203;-91
2023/06/29 03:42:36;;;;;;;6.67;2.47;;;;;;;-145.69;nan;52066.16;5055294;28;20297;-91
2023/06/29 03:45:03;;;;;;;7.33;2.70;;;;;;;-145.69;nan;52072.09;5075506;28;20685;-91
2023/06/29 03:47:30;;;;;;;5.53;2.47;;;;;;;-145.69;nan;52052.28;5076045;28;20215;-91
2023/06/29 03:49:56;;;;;;;4.80;2.50;;;;;;;-145.69;nan;52052.28;5075759;28;20238;-90
2023/06/29 03:52:23;;;;;;;4.93;2.20;;;;;;;-145.69;nan;52046.34;5075858;28;20198;-90
2023/06/29 03:54:49;;;;;;;6.97;2.23;;;;;;;-145.69;nan;52056.25;5055930;28;20646;-90
2023/06/29 03:57:16;;;;;;;4.63;2.40;;;;;;;-145.69;nan;52083.97;5055871;28;20208;-91
2023/06/29 03:59:44;;;;;;;6.43;2.33;;;;;;;-145.69;nan;52044.38;5055548;28;20203;-91
2023/06/29 04:02:10;;;;;;;4.00;2.33;;;;;;;-145.69;nan;52060.22;5065812;28;20218;-91
2023/06/29 04:04:37;;;;;;;6.53;2.50;;;;;;;-145.69;nan;52064.16;5075419;28;20232;-90
2023/06/29 04:07:04;;;;;;;6.67;2.20;;;;;;;-145.69;nan;52091.88;5075645;28;20207;-91
2023/06/29 04:09:31;;;;;;;4.13;1.90;;;;;;;-145.69;nan;52076.03;5075577;28;20199;-90
2023/06/29 04:11:58;;;;;;;9.63;2.20;;;;;;;-145.69;nan;52087.94;5075214;28;20603;-90
2023/06/29 04:14:24;;;;;;;9.80;2.37;;;;;;;-145.69;nan;52060.22;5074093;28;20333;-90
2023/06/29 04:16:52;;;;;;;4.27;2.40;;;;;;;-145.69;nan;52052.28;5074544;28;20195;-90
2023/06/29 04:19:19;;;;;;;5.00;2.10;;;;;;;-145.69;nan;52076.03;5075224;28;20199;-91
2023/06/29 04:21:45;;;;;;;3.97;2.20;;;;;;;-145.69;nan;52046.34;5075118;28;20191;-90
2023/06/29 04:24:12;;;;;;;4.40;2.43;;;;;;;-145.69;nan;52038.44;5074580;28;20230;-90
2023/06/29 04:26:39;;;;;;;3.63;1.97;;;;;;;-145.69;nan;52036.44;5074807;28;20206;-90
2023/06/29 04:29:06;;;;;;;3.33;2.03;;;;;;;-145.69;nan;52064.16;5074887;28;20209;-91
2023/06/29 04:31:33;;;;;;;5.40;2.23;;;;;;;-145.69;nan;52070.09;5074747;28;20195;-91
2023/06/29 04:34:02;;;;;;;5.23;2.40;;;;;;;-145.69;nan;52103.78;5074878;28;20205;-91
2023/06/29 04:36:29;;;;;;;3.70;2.00;;;;;;;-145.69;nan;52064.16;5074964;28;20230;-91
2023/06/29 04:38:55;;;;;;;2.60;1.73;;;;;;;-145.69;nan;52052.28;5075186;28;20209;-91
2023/06/29 04:41:30;;;;;;;3.42;2.10;;;;;;;-145.69;nan;52052.28;5074981;28;20228;-91
2023/06/29 04:43:57;;;;;;;5.23;2.63;;;;;;;-145.69;nan;52074.06;5074836;28;20233;-91
2023/06/29 04:46:23;;;;;;;4.85;2.15;;;;;;;-145.69;nan;52040.41;5054999;28;20206;-91
2023/06/29 04:48:50;;;;;;;7.13;2.40;;;;;;;-145.69;nan;52042.38;5054941;28;20214;-90
2023/06/29 04:51:18;;;;;;;5.43;2.20;;;;;;;-145.69;nan;52064.16;5066930;28;20317;-91
2023/06/29 04:53:44;;;;;;;6.68;2.00;;;;;;;-145.69;nan;52048.31;5053777;28;20210;-91
2023/06/29 04:56:11;;;;;;;3.40;2.23;;;;;;;-145.69;nan;52060.22;5054756;28;20207;-91
2023/06/29 04:58:37;;;;;;;4.18;1.88;;;;;;;-145.69;nan;52072.09;5054667;28;20202;-91
2023/06/29 05:01:04;;;;;;;3.83;2.13;;;;;;;-145.69;nan;52054.25;5054775;28;20230;-90
2023/06/29 05:03:31;;;;;;;3.20;2.17;;;;;;;-145.69;nan;52064.16;5071893;28;20222;-91
2023/06/29 05:05:58;;;;;;;2.13;1.73;;;;;;;-145.69;nan;52048.31;5073439;28;20202;-91
2023/06/29 05:08:27;;;;;;;5.78;2.20;;;;;;;-145.69;nan;52046.34;5074063;28;20650;-91
2023/06/29 05:10:54;;;;;;;4.15;2.00;;;;;;;-145.69;nan;52052.28;5074610;28;20195;-89
2023/06/29 05:13:21;;;;;;;4.35;2.22;;;;;;;-145.69;nan;52046.34;5073021;28;20199;-91
2023/06/29 05:15:48;;;;;;;3.70;2.20;;;;;;;-145.69;nan;52062.19;5074512;28;20203;-91
2023/06/29 05:18:15;;;;;;;3.70;2.40;;;;;;;-145.69;nan;52046.34;5074282;28;20199;-91
2023/06/29 05:20:42;;;;;;;7.45;2.20;;;;;;;-145.69;nan;52072.09;5074156;28;20256;-91
2023/06/29 05:23:11;;;;;;;7.05;2.42;;;;;;;-145.69;nan;52083.97;5073687;28;20205;-91
2023/06/29 05:25:39;;;;;;;3.92;2.10;;;;;;;-145.69;nan;52036.44;5074432;28;20589;-91
2023/06/29 05:28:06;;;;;;;4.68;2.20;;;;;;;-145.69;nan;52068.13;5074190;28;20202;-91
2023/06/29 05:30:33;;;;;;;5.78;2.28;;;;;;;-145.69;nan;52066.16;5074126;28;20202;-91
2023/06/29 05:33:00;;;;;;;6.18;2.13;;;;;;;-145.69;nan;52052.28;5073897;28;20703;-91
2023/06/29 05:35:26;;;;;;;2.80;2.00;;;;;;;-145.69;nan;52040.41;5074024;28;20657;-91
2023/06/29 05:37:53;;;;;;;6.20;2.15;;;;;;;-145.69;nan;52050.31;5078441;28;20210;-91
2023/06/29 05:40:19;;;;;;;6.60;2.03;;;;;;;-145.69;nan;52032.47;5078272;28;20207;-90
2023/06/29 05:42:47;;;;;;;2.72;1.65;;;;;;;-145.69;nan;52066.16;5077111;28;20201;-91
2023/06/29 05:45:14;;;;;;;4.82;2.00;;;;;;;-145.69;nan;52050.31;5078013;28;20226;-90
2023/06/29 05:47:40;;;;;;;3.15;2.13;;;;;;;-145.69;nan;52040.41;5078175;28;20565;-89
2023/06/29 05:50:07;;;;;;;5.50;2.25;;;;;;;-145.69;nan;52044.38;5076775;28;20234;-90
2023/06/29 05:52:34;;;;;;;4.40;1.95;;;;;;;-145.69;nan;52036.44;5077921;28;20190;-89
2023/06/29 05:55:01;;;;;;;5.03;1.90;;;;;;;-145.69;nan;52028.53;5076926;28;20438;-90
2023/06/29 05:57:28;;;;;;;3.90;1.80;;;;;;;-145.69;nan;52032.47;5078043;28;20194;-90
2023/06/29 05:59:55;;;;;;;4.00;1.90;;;;;;;-145.69;nan;52034.47;5077853;28;20210;-90
2023/06/29 06:02:22;;;;;;;6.82;2.20;;;;;;;-145.69;nan;52004.75;5077057;28;20190;-90
2023/06/29 06:04:49;;;;;;;8.40;1.80;;;;;;;-145.69;nan;52012.69;5077045;28;20230;-90
2023/06/29 06:07:15;;;;;;;4.40;1.90;;;;;;;-145.69;nan;52018.63;5077479;28;20205;-90
2023/06/29 06:09:42;;;;;;;4.00;1.77;;;;;;;-145.69;nan;52020.59;5077130;28;20198;-90
2023/06/29 06:12:09;;;;;;;3.28;1.75;;;;;;;-145.69;nan;51996.84;5076379;28;20230;-89
2023/06/29 06:14:36;;;;;;;3.78;1.80;;;;;;;-145.69;nan;52036.44;5077606;28;20228;-89
2023/06/29 06:17:04;;;;;;;5.20;2.22;;;;;;;-145.69;nan;51981.00;5077548;28;20539;-89
2023/06/29 06:19:31;;;;;;;5.97;2.00;;;;;;;-145.69;nan;51992.88;5077568;28;20221;-90
2023/06/29 06:21:57;;;;;;;4.38;1.92;;;;;;;-145.69;nan;52000.81;5076305;28;20199;-89
2023/06/29 06:24:24;;;;;;;2.65;1.50;;;;;;;-145.69;nan;52006.75;5077262;28;20226;-89
2023/06/29 06:26:50;;;;;;;3.30;1.70;;;;;;;-145.69;nan;52016.66;5076932;28;20203;-90
2023/06/29 06:29:17;;;;;;;3.90;1.63;;;;;;;-145.69;nan;52002.78;5077177;28;20203;-89
2023/06/29 06:31:43;;;;;;;5.50;1.80;;;;;;;-145.69;nan;51996.84;5077380;28;20661;-89
2023/06/29 06:34:11;;;;;;;4.72;1.60;;;;;;;-145.69;nan;51975.06;5076581;28;20441;-89
2023/06/29 06:36:38;;;;;;;2.33;1.77;;;;;;;-145.69;nan;51996.84;5076936;28;20211;-89
2023/06/29 06:39:05;;;;;;;3.95;1.90;;;;;;;-145.69;nan;52006.75;5077033;28;20706;-89
2023/06/29 06:41:32;;;;;;;2.85;1.60;;;;;;;-145.69;nan;51979.03;5076644;28;20209;-90
2023/06/29 06:44:01;;;;;;;6.20;2.00;;;;;;;-145.69;nan;51990.91;5063240;28;20207;-88
2023/06/29 06:46:27;;;;;;;4.63;1.77;;;;;;;-145.69;nan;51984.97;5056633;28;20203;-90
2023/06/29 06:48:54;;;;;;;3.13;1.80;;;;;;;-145.69;nan;51982.97;5074684;28;20217;-89
2023/06/29 06:51:22;;;;;;;4.22;1.83;;;;;;;-145.69;nan;51984.97;5076526;28;20235;-89
2023/06/29 06:53:49;;;;;;;5.70;2.05;;;;;;;-145.69;nan;51992.88;5076808;28;20195;-89
2023/06/29 06:56:15;;;;;;;7.30;1.95;;;;;;;-145.69;nan;51986.94;5075569;28;20191;-90
2023/06/29 06:58:42;;;;;;;3.40;1.58;;;;;;;-145.69;nan;51994.88;5076936;28;20377;-88
2023/06/29 07:01:09;;;;;;;4.80;1.90;;;;;;;-145.69;nan;51988.91;5076730;28;20213;-89
2023/06/29 07:03:35;;;;;;;5.63;1.85;;;;;;;-145.69;nan;51967.13;5075604;28;20651;-89
2023/06/29 07:06:02;;;;;;;6.82;1.98;;;;;;;-145.69;nan;51984.97;5076262;28;20577;-90
2023/06/29 07:08:30;;;;;;;4.57;1.77;;;;;;;-145.69;nan;51971.09;5075813;28;20199;-89
2023/06/29 07:10:56;;;;;;;5.05;1.52;;;;;;;-145.69;nan;51965.16;5076746;28;20229;-89
2023/06/29 07:13:24;;;;;;;3.85;1.40;;;;;;;-145.69;nan;51981.00;5076632;28;20203;-89
2023/06/29 07:15:50;;;;;;;4.43;1.60;;;;;;;-145.69;nan;51977.03;5076329;28;20214;-89
2023/06/29 07:18:17;;;;;;;2.97;1.83;;;;;;;-145.69;nan;51973.06;5076352;28;20210;-89
2023/06/29 07:20:44;;;;;;;3.97;1.63;;;;;;;-145.69;nan;51973.06;5076168;28;20213;-89
2023/06/29 07:23:10;;;;;;;11.93;1.98;;;;;;;-145.69;nan;51931.50;5076226;28;20237;-89
2023/06/29 07:25:38;;;;;;;9.10;1.80;;;;;;;-145.69;nan;51969.13;5075171;28;20223;-89
2023/06/29 07:28:05;;;;;;;5.25;1.77;;;;;;;-145.69;nan;51951.28;5076147;28;20206;-89
2023/06/29 07:30:31;;;;;;;7.28;1.70;;;;;;;-145.69;nan;51959.22;5075534;28;20446;-90
2023/06/29 07:32:58;;;;;;;6.05;1.75;;;;;;;-145.69;nan;51949.31;5076158;28;20669;-89
2023/06/29 07:35:24;;;;;;;3.40;1.70;;;;;;;-145.69;nan;51963.19;5075491;28;20653;-90
2023/06/29 07:37:51;;;;;;;11.13;2.05;;;;;;;-145.69;nan;51957.25;5076302;28;20565;-91
2023/06/29 07:40:19;;;;;;;4.00;1.75;;;;;;;-145.69;nan;51927.53;5076161;28;20210;-91
2023/06/29 07:42:47;;;;;;;3.45;1.60;;;;;;;-145.69;nan;51933.47;5075748;28;20623;-92
2023/06/29 07:45:14;;;;;;;4.35;2.10;;;;;;;-145.69;nan;51935.47;5075133;28;20226;-87
2023/06/29 07:47:41;;;;;;;9.77;1.88;;;;;;;-145.69;nan;51939.41;5075149;28;20654;-86
2023/06/29 07:50:08;;;;;;;5.03;1.70;;;;;;;-145.69;nan;51925.56;5074879;28;20087;-86
2023/06/29 07:52:34;;;;;;;7.65;1.80;;;;;;;-145.69;nan;51929.50;5075305;28;20510;-87
2023/06/29 07:55:01;;;;;;;4.28;1.80;;;;;;;-145.69;nan;51933.47;5074546;28;20202;-85
2023/06/29 07:57:27;;;;;;;8.52;1.80;;;;;;;-145.69;nan;51921.59;5074884;28;20634;-87
2023/06/29 07:59:55;;;;;;;4.25;1.85;;;;;;;-145.69;nan;51927.53;5074093;28;20213;-85
2023/06/29 08:02:22;;;;;;;4.38;1.75;;;;;;;-145.69;nan;51933.47;5074585;28;20205;-85
2023/06/29 08:04:49;;;;;;;4.22;1.90;;;;;;;-145.69;nan;51909.72;5073940;28;20223;-87
2023/06/29 08:07:16;;;;;;;3.83;1.60;;;;;;;-145.69;nan;51921.59;5074557;28;20313;-85
2023/06/29 08:09:43;;;;;;;5.53;1.52;;;;;;;-145.69;nan;51889.91;5074002;28;20301;-85
2023/06/29 08:12:09;;;;;;;4.90;1.50;;;;;;;-145.69;nan;51882.00;5074255;28;20707;-87
2023/06/29 08:14:38;;;;;;;4.32;1.40;;;;;;;-145.69;nan;51897.84;5073682;28;20198;-87
2023/06/29 08:17:06;;;;;;;2.60;1.50;;;;;;;-145.69;nan;51891.88;5073716;28;20198;-86
2023/06/29 08:19:32;;;;;;;4.30;1.38;;;;;;;-145.69;nan;51909.72;5074136;28;20195;-86
2023/06/29 08:21:59;;;;;;;2.13;1.27;;;;;;;-145.69;nan;51878.03;5073779;28;20199;-84
2023/06/29 08:24:25;;;;;;;3.22;1.33;;;;;;;-145.69;nan;51883.97;5073381;28;20207;-85
2023/06/29 08:26:52;;;;;;;7.05;1.40;;;;;;;-145.69;nan;51897.84;5073965;28;20214;-85
2023/06/29 08:29:19;;;;;;;4.28;1.70;;;;;;;-145.69;nan;51901.78;5073649;28;20209;-85
2023/06/29 08:31:46;;;;;;;5.45;1.38;;;;;;;-145.69;nan;51891.88;5073488;28;20206;-86
2023/06/29 08:34:14;;;;;;;3.42;1.60;;;;;;;-145.69;nan;51882.00;5073519;28;20203;-86
2023/06/29 08:36:40;;;;;;;6.72;1.98;;;;;;;-145.69;nan;51905.75;5073515;28;20285;-83
2023/06/29 08:39:08;;;;;;;6.93;1.60;;;;;;;-145.69;nan;51901.78;5073786;28;20210;-84
2023/06/29 08:41:35;;;;;;;5.53;2.00;;;;;;;-145.69;nan;51893.88;5071467;28;20294;-82
2023/06/29 08:44:04;;;;;;;5.28;2.08;;;;;;;-145.69;nan;51899.81;5063152;28;20195;-85
2023/06/29 08:46:31;;;;;;;3.25;1.75;;;;;;;-145.69;nan;51866.16;5073314;28;20301;-84
2023/06/29 08:48:58;;;;;;;4.57;1.70;;;;;;;-145.69;nan;51883.97;5073101;28;20554;-83
2023/06/29 08:51:28;;;;;;;4.50;1.73;;;;;;;-145.69;nan;51901.78;5073044;28;20213;-83
2023/06/29 08:53:55;;;;;;;3.95;1.42;;;;;;;-145.69;nan;51907.72;5073767;28;20245;-84
2023/06/29 08:56:24;;;;;;;6.60;1.88;;;;;;;-145.69;nan;51872.09;5073402;28;20234;-86
2023/06/29 08:58:51;;;;;;;7.25;1.90;;;;;;;-145.69;nan;51889.91;5073329;28;20338;-83
2023/06/29 09:01:18;;;;;;;8.10;1.75;;;;;;;-145.69;nan;51895.84;5072997;28;20194;-83
2023/06/29 09:03:45;;;;;;;7.03;1.95;;;;;;;-145.69;nan;51933.47;5073347;28;20198;-84
2023/06/29 09:06:11;;;;;;;3.63;1.90;;;;;;;-145.69;nan;51905.75;5072963;28;20604;-86
2023/06/29 09:08:40;;;;;;;3.97;1.77;;;;;;;-145.69;nan;51905.75;5073340;28;20199;-86
2023/06/29 09:11:06;;;;;;;5.85;2.20;;;;;;;-145.69;nan;51901.78;5071976;28;20187;-85
2023/06/29 09:13:34;;;;;;;6.47;2.00;;;;;;;-145.69;nan;51897.84;5072827;28;20661;-87
2023/06/29 09:16:01;;;;;;;4.80;2.10;;;;;;;-145.69;nan;51913.69;5073003;28;20202;-84
2023/06/29 09:18:28;;;;;;;6.95;2.10;;;;;;;-145.69;nan;51899.81;5072854;28;20602;-86
2023/06/29 09:20:55;;;;;;;5.75;1.85;;;;;;;-145.69;nan;51925.56;5073297;28;20207;-86
2023/06/29 09:23:22;;;;;;;3.88;1.73;;;;;;;-145.69;nan;51909.72;5072829;28;20534;-86
2023/06/29 09:25:50;;;;;;;4.50;1.90;;;;;;;-145.69;nan;51909.72;5072772;28;20233;-85
2023/06/29 09:28:18;;;;;;;11.25;2.15;;;;;;;-145.69;nan;51909.72;5073054;28;20565;-86
2023/06/29 09:30:44;;;;;;;3.08;1.92;;;;;;;-145.69;nan;51882.00;5073343;28;20191;-86
2023/06/29 09:33:12;;;;;;;5.10;2.20;;;;;;;-145.69;nan;51897.84;5072691;28;20210;-86
2023/06/29 09:35:40;;;;;;;6.85;2.15;;;;;;;-145.69;nan;51866.16;5072848;28;20202;-87
2023/06/29 09:38:07;;;;;;;4.53;1.90;;;;;;;-145.69;nan;51882.00;5073233;28;20266;-85
2023/06/29 09:40:46;;;;;;;8.70;1.90;;;;;;;-145.69;nan;51862.19;5073025;28;20234;-87
2023/06/29 09:43:17;;;;;;;6.38;1.98;;;;;;;-145.69;nan;51870.13;5073084;28;20202;-85
2023/06/29 09:45:44;;;;;;;4.45;1.70;;;;;;;-145.69;nan;51874.06;5072643;28;20248;-83
2023/06/29 09:48:12;;;;;;;10.87;2.30;;;;;;;-145.69;nan;51874.06;5071750;28;20434;-84
2023/06/29 09:50:39;;;;;;;4.15;2.05;;;;;;;-145.69;nan;51834.47;5072423;28;20476;-85
2023/06/29 09:53:08;;;;;;;3.30;1.90;;;;;;;-145.69;nan;51862.19;5072476;28;20234;-86
2023/06/29 09:55:37;;;;;;;4.90;2.00;;;;;;;-145.69;nan;51854.28;5072649;28;20197;-85
2023/06/29 09:58:06;;;;;;;6.85;2.10;;;;;;;-145.69;nan;51828.53;5072771;28;20225;-83
2023/06/29 10:00:36;;;;;;;6.25;1.75;;;;;;;-145.69;nan;51844.38;5072376;28;20654;-82
2023/06/29 10:03:02;;;;;;;5.28;2.00;;;;;;;-145.69;nan;51810.72;5072261;28;20226;-83
2023/06/29 10:05:31;;;;;;;3.88;2.33;;;;;;;-145.69;nan;51822.59;5072468;28;20227;-84
2023/06/29 10:07:58;;;;;;;3.40;1.75;;;;;;;-145.69;nan;51832.50;5072653;28;20291;-82
2023/06/29 10:10:27;;;;;;;9.13;2.15;;;;;;;-145.69;nan;51798.81;5072535;28;20199;-85
2023/06/29 10:12:58;;;;;;;5.30;2.30;;;;;;;-145.69;nan;51822.59;5072245;28;20199;-84
2023/06/29 10:15:27;;;;;;;5.57;2.17;;;;;;;-145.69;nan;51794.88;5072699;28;20206;-84
2023/06/29 10:18:09;;;;;;;7.82;2.00;;;;;;;-145.69;nan;51838.44;5072647;28;20207;-84
2023/06/29 10:20:37;;;;;;;6.45;2.17;;;;;;;-145.69;nan;51814.66;5072533;28;20194;-82
2023/06/29 10:23:07;;;;;;;5.65;2.22;;;;;;;-145.69;nan;51802.78;5074677;28;20204;-84
2023/06/29 10:25:37;;;;;;;6.50;2.20;;;;;;;-145.69;nan;51840.41;5076371;28;20235;-84
2023/06/29 10:28:05;;;;;;;5.53;2.10;;;;;;;-145.69;nan;51828.53;5076303;28;20203;-83
2023/06/29 10:30:43;;;;;;;4.10;2.10;;;;;;;-145.69;nan;51838.44;5075920;28;20199;-84
2023/06/29 10:33:12;;;;;;;5.95;2.33;;;;;;;-145.69;nan;51834.47;5076232;28;20195;-85
2023/06/29 10:35:39;;;;;;;6.85;2.10;;;;;;;-145.69;nan;51822.59;5075183;28;20202;-82
2023/06/29 10:38:10;;;;;;;5.57;2.00;;;;;;;-145.69;nan;51806.75;5057055;28;20206;-84
2023/06/29 10:40:46;;;;;;;7.22;2.15;;;;;;;-145.69;nan;51842.38;5059488;28;20205;-83
2023/06/29 10:43:13;;;;;;;4.95;1.70;;;;;;;-145.69;nan;51830.50;5064978;28;20212;-83
2023/06/29 10:45:40;;;;;;;7.63;2.30;;;;;;;-145.69;nan;51816.66;5076124;28;20684;-84
2023/06/29 10:48:13;;;;;;;4.60;2.28;;;;;;;-145.69;nan;51840.41;5075867;28;20210;-83
2023/06/29 10:50:42;;;;;;;4.88;2.50;;;;;;;-145.69;nan;51814.66;5059333;28;20223;-84
2023/06/29 10:53:11;;;;;;;3.83;2.42;;;;;;;-145.69;nan;51806.75;5075679;28;20214;-81
2023/06/29 10:55:43;;;;;;;8.75;2.53;;;;;;;-145.69;nan;51822.59;5075641;28;20203;-83
2023/06/29 10:58:19;;;;;;;5.47;2.92;;;;;;;-145.69;nan;51852.28;5075486;28;20206;-84
2023/06/29 11:00:47;;;;;;;6.80;2.80;;;;;;;-145.69;nan;51818.63;5075399;28;20260;-82
2023/06/29 11:03:15;;;;;;;5.40;2.65;;;;;;;-145.69;nan;51824.56;5075139;28;20195;-85
2023/06/29 11:05:43;;;;;;;7.03;3.17;;;;;;;-145.69;nan;51868.13;5075322;28;20222;-85
2023/06/29 11:08:10;;;;;;;9.35;4.00;;;;;;;-145.69;nan;51830.50;5074906;28;20430;-85
2023/06/29 11:10:37;;;;;;;9.05;3.17;;;;;;;-145.69;nan;51798.81;5075219;28;20198;-85
2023/06/29 11:13:08;;;;;;;6.35;2.80;;;;;;;-145.69;nan;51810.72;5075187;28;20653;-86
2023/06/29 11:15:35;;;;;;;7.97;4.35;;;;;;;-145.69;nan;51790.91;5075046;28;20191;-86
2023/06/29 11:18:04;;;;;;;11.65;4.60;;;;;;;-145.69;nan;51784.97;5074764;28;20199;-83
2023/06/29 11:20:34;;;;;;;7.85;3.58;;;;;;;-145.69;nan;51800.81;5075265;28;20194;-82
2023/06/29 11:23:02;;;;;;;7.07;3.47;;;;;;;-145.69;nan;51747.34;5074956;28;20256;-83
2023/06/29 11:25:29;;;;;;;9.85;4.10;;;;;;;-145.69;nan;51798.81;5074975;28;20209;-83
2023/06/29 11:27:56;;;;;;;7.63;3.97;;;;;;;-145.69;nan;51773.09;5074806;28;20615;-84
2023/06/29 11:30:23;;;;;;;6.22;3.28;;;;;;;-145.69;nan;51769.13;5075073;28;20205;-83
2023/06/29 11:32:52;;;;;;;8.82;3.70;;;;;;;-145.69;nan;51771.09;5074587;28;20194;-82
2023/06/29 11:35:21;;;;;;;10.60;4.25;;;;;;;-145.69;nan;51741.41;5074222;28;20199;-83